Time;durP1;ratioP1;P1;durP2;ratioP2;P2;SDS_P1;SDS_P2;PMS_P1;PMS_P2;Temp;Humidity;BMP_temperature;BMP_pressure;BME280_temperature;BME280_humidity;BME280_pressure;Samples;Min_cycle;Max_cycle;Signal;HPM_P1;HPM_P2
2023/07/04 00:01:49;;;;;;;5.88;1.40;;;11.60;99.90;;;;;;4856601;29;20076;-60
2023/07/04 00:04:20;;;;;;;9.82;1.30;;;11.60;99.90;;;;;;4856398;29;20046;-67
2023/07/04 00:06:48;;;;;;;11.00;1.50;;;11.60;99.90;;;;;;4857896;29;20065;-60
2023/07/04 00:09:17;;;;;;;13.45;2.38;;;11.50;99.90;;;;;;4855977;29;20050;-65
2023/07/04 00:11:45;;;;;;;8.18;1.65;;;11.50;99.90;;;;;;4862969;29;20401;-61
2023/07/04 00:14:13;;;;;;;15.15;2.78;;;11.50;99.90;;;;;;4862169;29;20053;-61
2023/07/04 00:16:41;;;;;;;11.60;2.05;;;11.40;99.90;;;;;;4844812;29;20062;-61
2023/07/04 00:19:10;;;;;;;20.63;2.58;;;11.40;99.90;;;;;;4846970;29;20045;-61
2023/07/04 00:21:38;;;;;;;11.77;2.17;;;11.40;99.90;;;;;;4857525;29;20058;-61
2023/07/04 00:24:07;;;;;;;8.90;1.52;;;11.40;99.90;;;;;;4856861;29;20801;-60
2023/07/04 00:26:35;;;;;;;7.00;2.78;;;11.40;99.90;;;;;;4857572;29;20061;-60
2023/07/04 00:29:03;;;;;;;10.93;1.92;;;11.40;99.90;;;;;;4857368;29;20066;-60
2023/07/04 00:31:31;;;;;;;14.40;1.80;;;11.40;99.90;;;;;;4846500;29;20053;-61
2023/07/04 00:33:59;;;;;;;8.85;1.30;;;11.40;99.90;;;;;;4850935;29;20423;-63
2023/07/04 00:36:29;;;;;;;8.13;1.45;;;11.40;99.90;;;;;;4856750;29;20049;-62
2023/07/04 00:38:57;;;;;;;8.73;1.73;;;11.40;99.90;;;;;;4848790;29;20057;-61
2023/07/04 00:41:29;;;;;;;9.80;2.15;;;11.40;99.90;;;;;;4859279;29;20056;-61
2023/07/04 00:44:13;;;;;;;13.30;2.00;;;11.40;99.90;;;;;;4858449;29;20046;-61
2023/07/04 00:46:54;;;;;;;10.75;1.70;;;11.50;99.90;;;;;;4846125;29;20046;-60
2023/07/04 00:49:42;;;;;;;10.32;1.63;;;11.50;99.90;;;;;;4863097;29;20413;-64
2023/07/04 00:52:14;;;;;;;7.60;1.52;;;11.50;99.90;;;;;;4855640;29;20057;-61
2023/07/04 00:54:57;;;;;;;8.63;2.03;;;11.20;99.90;;;;;;4870461;29;20049;-59
2023/07/04 00:57:32;;;;;;;10.70;1.55;;;11.50;99.90;;;;;;4856736;29;20053;-62
2023/07/04 01:00:19;;;;;;;11.10;1.65;;;11.50;99.90;;;;;;4854857;29;20060;-63
2023/07/04 01:02:50;;;;;;;9.05;1.67;;;11.40;99.90;;;;;;4849526;29;20418;-63
2023/07/04 01:05:29;;;;;;;16.08;3.03;;;11.40;99.90;;;;;;4853090;29;20045;-60
2023/07/04 01:08:05;;;;;;;9.50;2.17;;;11.40;99.90;;;;;;4853753;29;20049;-60
2023/07/04 01:10:38;;;;;;;10.70;1.85;;;11.30;99.90;;;;;;4855681;29;20046;-64
2023/07/04 01:13:28;;;;;;;13.45;2.70;;;11.30;99.90;;;;;;4863638;29;20049;-64
2023/07/04 01:15:55;;;;;;;12.27;1.90;;;11.30;99.90;;;;;;4852448;29;20038;-64
2023/07/04 01:18:23;;;;;;;10.07;1.70;;;11.30;99.90;;;;;;4854720;29;20054;-61
2023/07/04 01:20:52;;;;;;;13.07;2.40;;;11.30;99.90;;;;;;4854763;29;20057;-66
2023/07/04 01:23:39;;;;;;;16.98;2.45;;;11.20;99.90;;;;;;4855084;29;20060;-64
2023/07/04 01:26:23;;;;;;;9.73;1.70;;;11.20;99.90;;;;;;4856857;29;20537;-64
2023/07/04 01:28:54;;;;;;;12.88;2.13;;;11.10;99.90;;;;;;4856167;29;20052;-62
2023/07/04 01:31:27;;;;;;;14.50;2.05;;;11.10;99.90;;;;;;4851522;29;20056;-63
2023/07/04 01:33:58;;;;;;;11.10;1.48;;;11.10;99.90;;;;;;4858762;29;20052;-68
2023/07/04 01:36:32;;;;;;;12.98;1.30;;;11.00;99.90;;;;;;4859593;29;20045;-66
2023/07/04 01:39:00;;;;;;;7.88;1.83;;;11.00;99.90;;;;;;4846060;29;20050;-66
2023/07/04 01:41:29;;;;;;;13.00;1.67;;;11.00;99.90;;;;;;4858356;29;20056;-70
2023/07/04 01:44:05;;;;;;;13.30;2.28;;;10.90;99.90;;;;;;4858409;29;20049;-69
2023/07/04 01:46:35;;;;;;;5.38;1.40;;;10.90;99.90;;;;;;4857325;29;20529;-69
2023/07/04 01:49:02;;;;;;;7.90;1.83;;;10.90;99.90;;;;;;4859869;29;20069;-66
2023/07/04 01:51:34;;;;;;;11.35;1.52;;;10.90;99.90;;;;;;4853933;29;20068;-70
2023/07/04 01:54:03;;;;;;;6.70;1.33;;;10.90;99.90;;;;;;4860511;29;20046;-69
2023/07/04 01:56:33;;;;;;;5.72;1.25;;;10.80;99.90;;;;;;4857618;29;20072;-66
2023/07/04 01:59:01;;;;;;;11.15;1.52;;;10.80;99.90;;;;;;4872949;29;20049;-68
2023/07/04 02:01:31;;;;;;;;;;;10.80;99.90;;;;;;4873125;29;20072;-68
2023/07/04 02:03:59;;;;;;;15.55;4.20;;;10.80;99.90;;;;;;4858991;29;20325;-61
2023/07/04 02:06:27;;;;;;;6.82;2.28;;;10.80;99.90;;;;;;4857910;29;20050;-62
2023/07/04 02:08:55;;;;;;;6.57;1.67;;;10.80;99.90;;;;;;4874003;29;20053;-63
2023/07/04 02:11:23;;;;;;;26.92;2.90;;;10.80;99.90;;;;;;4856341;29;20041;-62
2023/07/04 02:13:51;;;;;;;7.15;1.58;;;10.70;99.90;;;;;;4861526;29;20542;-64
2023/07/04 02:16:19;;;;;;;9.10;1.70;;;10.70;99.90;;;;;;4861720;29;20045;-62
2023/07/04 02:18:47;;;;;;;8.45;2.45;;;10.80;99.90;;;;;;4860685;29;20049;-62
2023/07/04 02:24:53;;;;;;;15.45;1.80;;;10.70;99.90;;;;;;4867967;29;20056;-62
2023/07/04 02:27:22;;;;;;;8.25;1.42;;;10.70;99.90;;;;;;4860742;29;20046;-61
2023/07/04 02:29:49;;;;;;;9.20;1.70;;;10.70;99.90;;;;;;4870875;29;20049;-59
2023/07/04 02:32:17;;;;;;;8.98;2.13;;;10.70;99.90;;;;;;4861625;29;20053;-60
2023/07/04 02:34:45;;;;;;;7.35;1.42;;;10.70;99.90;;;;;;4861270;29;20045;-60
2023/07/04 02:37:15;;;;;;;;;;;10.70;99.90;;;;;;4863364;29;20057;-62
2023/07/04 02:39:43;;;;;;;4.85;1.70;;;10.70;99.90;;;;;;4861253;29;20544;-60
2023/07/04 02:42:12;;;;;;;12.38;2.50;;;10.70;99.90;;;;;;4861557;29;20053;-59
2023/07/04 02:44:39;;;;;;;7.65;1.30;;;10.70;99.90;;;;;;4860686;29;20038;-59
2023/07/04 02:47:07;;;;;;;5.78;1.25;;;10.80;99.90;;;;;;4862724;29;20057;-60
2023/07/04 02:49:38;;;;;;;8.13;1.70;;;10.80;99.90;;;;;;4860583;29;20052;-60
2023/07/04 02:52:09;;;;;;;11.60;1.60;;;10.80;99.90;;;;;;4875981;29;20037;-62
2023/07/04 02:54:37;;;;;;;5.20;1.00;;;10.80;99.90;;;;;;4861602;29;20566;-59
2023/07/04 02:57:05;;;;;;;9.82;1.52;;;10.80;99.90;;;;;;4862378;29;20050;-59
2023/07/04 02:59:34;;;;;;;9.80;1.80;;;10.80;99.90;;;;;;4862318;29;20046;-59
2023/07/04 03:02:01;;;;;;;7.25;1.55;;;10.80;99.90;;;;;;4862682;29;20052;-61
2023/07/04 03:04:29;;;;;;;10.00;2.22;;;10.80;99.90;;;;;;4863126;29;20056;-62
2023/07/04 03:06:57;;;;;;;5.55;1.40;;;10.80;99.90;;;;;;4876222;29;20038;-61
2023/07/04 03:09:25;;;;;;;9.35;1.38;;;10.80;99.90;;;;;;4876549;29;20056;-60
2023/07/04 03:11:54;;;;;;;9.52;1.92;;;10.70;99.90;;;;;;4875043;29;20490;-65
2023/07/04 03:14:23;;;;;;;10.02;1.73;;;10.70;99.90;;;;;;4860903;29;20057;-61
2023/07/04 03:16:52;;;;;;;6.43;1.60;;;10.70;99.90;;;;;;4857554;29;20061;-60
2023/07/04 03:19:20;;;;;;;5.65;1.50;;;10.70;99.90;;;;;;4872136;29;20060;-62
2023/07/04 03:21:49;;;;;;;6.57;1.40;;;10.60;99.90;;;;;;4873588;29;20060;-61
2023/07/04 03:24:17;;;;;;;9.75;1.77;;;10.60;99.90;;;;;;4844542;29;20673;-64
2023/07/04 03:26:45;;;;;;;7.90;2.20;;;10.50;99.90;;;;;;4861340;29;20045;-62
2023/07/04 03:29:15;;;;;;;5.03;1.48;;;10.50;99.90;;;;;;4879322;29;20057;-64
2023/07/04 03:31:42;;;;;;;13.88;1.95;;;10.40;99.90;;;;;;4874292;29;20041;-64
2023/07/04 03:34:12;;;;;;;4.60;1.23;;;10.40;99.90;;;;;;4857274;29;20057;-62
2023/07/04 03:36:40;;;;;;;7.40;2.03;;;10.30;99.90;;;;;;4863802;29;20653;-62
2023/07/04 03:39:08;;;;;;;5.25;1.30;;;10.30;99.90;;;;;;4875919;29;20060;-65
2023/07/04 03:41:36;;;;;;;10.98;1.60;;;10.20;99.90;;;;;;4860362;29;20041;-63
2023/07/04 03:44:04;;;;;;;8.18;1.67;;;10.20;99.90;;;;;;4861374;29;20054;-67
2023/07/04 03:46:32;;;;;;;8.20;1.65;;;10.20;99.90;;;;;;4875026;29;20498;-61
2023/07/04 03:49:01;;;;;;;6.72;2.17;;;10.20;99.90;;;;;;4844438;29;20054;-60
2023/07/04 03:51:29;;;;;;;4.60;1.25;;;10.10;99.90;;;;;;4859831;29;20049;-62
2023/07/04 03:53:56;;;;;;;5.80;1.75;;;10.10;99.90;;;;;;4861506;29;20061;-65
2023/07/04 03:56:25;;;;;;;3.03;1.98;;;10.10;99.90;;;;;;4861301;29;20041;-65
2023/07/04 03:58:53;;;;;;;7.60;1.45;;;10.00;99.90;;;;;;4861902;29;20054;-60
2023/07/04 04:01:22;;;;;;;6.38;1.42;;;9.90;99.90;;;;;;4874898;29;20053;-65
2023/07/04 04:03:53;;;;;;;6.25;1.40;;;9.90;99.90;;;;;;4860973;29;20060;-65
2023/07/04 04:06:22;;;;;;;10.95;2.42;;;9.90;99.90;;;;;;4861216;29;20049;-67
2023/07/04 04:08:50;;;;;;;8.48;1.48;;;9.80;99.90;;;;;;4860569;29;20076;-63
2023/07/04 04:11:18;;;;;;;7.20;1.75;;;9.80;99.90;;;;;;4851607;29;20522;-67
2023/07/04 04:13:46;;;;;;;3.15;1.00;;;9.80;99.90;;;;;;4860857;29;20061;-67
2023/07/04 04:16:14;;;;;;;7.53;1.42;;;9.80;99.90;;;;;;4860859;29;20054;-67
2023/07/04 04:18:42;;;;;;;10.85;1.50;;;9.80;99.90;;;;;;4865499;29;20501;-67
2023/07/04 04:21:10;;;;;;;5.63;1.23;;;9.80;99.90;;;;;;4878792;29;20057;-67
2023/07/04 04:23:37;;;;;;;8.88;1.23;;;9.80;99.90;;;;;;4857300;29;20053;-66
2023/07/04 04:26:06;;;;;;;10.95;1.73;;;9.80;99.90;;;;;;4864025;29;20049;-68
2023/07/04 04:28:34;;;;;;;6.68;1.35;;;9.80;99.90;;;;;;4842331;29;20053;-68
2023/07/04 04:31:02;;;;;;;6.07;1.38;;;9.90;99.90;;;;;;4842344;29;20053;-67
2023/07/04 04:33:30;;;;;;;7.07;1.50;;;9.90;99.90;;;;;;4857085;29;20402;-69
2023/07/04 04:35:57;;;;;;;5.22;1.15;;;10.00;99.90;;;;;;4859994;29;20054;-67
2023/07/04 04:38:25;;;;;;;4.05;1.17;;;10.00;99.90;;;;;;4860536;29;20042;-69
2023/07/04 04:40:55;;;;;;;7.47;1.50;;;10.00;99.90;;;;;;4860193;29;20056;-68
2023/07/04 04:43:23;;;;;;;8.98;1.55;;;10.10;99.90;;;;;;4859790;29;20402;-69
2023/07/04 04:45:51;;;;;;;4.90;1.02;;;10.10;99.90;;;;;;4857708;29;20058;-62
2023/07/04 04:48:29;;;;;;;11.55;1.27;;;10.10;99.90;;;;;;4848092;29;20037;-68
2023/07/04 04:50:57;;;;;;;4.78;1.00;;;10.20;99.90;;;;;;4854420;29;20049;-69
2023/07/04 04:53:26;;;;;;;6.50;1.40;;;10.20;99.90;;;;;;4854188;29;20060;-68
2023/07/04 04:55:54;;;;;;;9.27;1.40;;;10.20;99.90;;;;;;4854294;29;20057;-68
2023/07/04 04:58:22;;;;;;;4.68;1.27;;;10.20;99.90;;;;;;4861593;29;20053;-60
2023/07/04 05:00:51;;;;;;;4.53;1.10;;;10.30;99.90;;;;;;4855560;29;20057;-66
2023/07/04 05:03:19;;;;;;;7.40;1.25;;;10.30;99.90;;;;;;4848178;29;20045;-67
2023/07/04 05:05:47;;;;;;;11.15;1.60;;;10.30;99.90;;;;;;4851831;29;20064;-67
2023/07/04 05:08:16;;;;;;;7.13;1.70;;;10.30;99.90;;;;;;4854582;29;20402;-68
2023/07/04 05:10:44;;;;;;;3.95;1.15;;;10.40;99.90;;;;;;4856772;29;20064;-69
2023/07/04 05:13:12;;;;;;;6.97;1.17;;;10.40;99.90;;;;;;4854685;29;20064;-68
2023/07/04 05:15:40;;;;;;;8.93;1.20;;;10.40;99.90;;;;;;4853403;29;20049;-63
2023/07/04 05:18:08;;;;;;;5.68;0.98;;;10.40;99.90;;;;;;4850068;29;20042;-69
2023/07/04 05:20:36;;;;;;;10.98;1.42;;;10.40;99.90;;;;;;4855013;29;20626;-69
2023/07/04 05:23:07;;;;;;;8.90;1.30;;;10.50;99.90;;;;;;4849479;29;20053;-70
2023/07/04 05:25:34;;;;;;;5.00;1.50;;;10.50;99.90;;;;;;4852066;29;20379;-62
2023/07/04 05:28:02;;;;;;;15.60;2.05;;;10.50;99.90;;;;;;4859147;29;20076;-59
2023/07/04 05:30:30;;;;;;;11.43;2.15;;;10.60;99.90;;;;;;4854560;29;20502;-63
2023/07/04 05:32:58;;;;;;;8.57;1.10;;;10.60;99.90;;;;;;4856359;29;20056;-60
2023/07/04 05:35:26;;;;;;;7.63;1.20;;;10.70;99.90;;;;;;4855648;29;20053;-61
2023/07/04 05:37:54;;;;;;;8.32;1.77;;;10.80;99.90;;;;;;4859137;29;20053;-64
2023/07/04 05:40:22;;;;;;;6.20;1.02;;;10.80;99.90;;;;;;4856147;29;20057;-63
2023/07/04 05:42:50;;;;;;;11.45;1.40;;;10.80;99.90;;;;;;4853989;29;20513;-62
2023/07/04 05:45:18;;;;;;;9.93;1.40;;;10.90;99.90;;;;;;4866145;29;20052;-64
2023/07/04 05:47:46;;;;;;;4.78;1.48;;;10.90;99.90;;;;;;4852133;29;20060;-68
2023/07/04 05:50:14;;;;;;;4.63;1.70;;;11.00;99.90;;;;;;4854532;29;20064;-62
2023/07/04 05:52:42;;;;;;;13.57;2.38;;;11.00;99.90;;;;;;4854201;29;20053;-64
2023/07/04 05:55:11;;;;;;;5.88;1.20;;;11.10;99.90;;;;;;4854474;29;20383;-67
2023/07/04 05:57:39;;;;;;;2.85;0.85;;;11.10;99.90;;;;;;4857965;29;20056;-63
2023/07/04 06:00:09;;;;;;;7.80;1.30;;;11.20;99.90;;;;;;4851568;29;20057;-62
2023/07/04 06:02:40;;;;;;;3.25;1.10;;;11.20;99.90;;;;;;4850636;29;20041;-62
2023/07/04 06:05:08;;;;;;;5.97;1.80;;;11.30;99.90;;;;;;4845042;29;20053;-63
2023/07/04 06:07:36;;;;;;;13.15;1.20;;;11.30;99.90;;;;;;4852569;29;20479;-63
2023/07/04 06:10:05;;;;;;;11.82;1.33;;;11.40;99.90;;;;;;4870091;29;20046;-62
2023/07/04 06:12:34;;;;;;;12.75;1.48;;;11.50;99.90;;;;;;4854339;29;20064;-61
2023/07/04 06:15:01;;;;;;;5.93;1.45;;;11.50;99.90;;;;;;4854509;29;20060;-63
2023/07/04 06:17:29;;;;;;;5.32;1.35;;;11.60;99.90;;;;;;4854673;29;20053;-65
2023/07/04 06:19:58;;;;;;;11.00;1.17;;;11.60;99.90;;;;;;4843401;29;20388;-60
2023/07/04 06:22:27;;;;;;;8.30;1.30;;;11.70;99.90;;;;;;4855679;29;20050;-66
2023/07/04 06:24:55;;;;;;;9.57;2.55;;;11.70;99.90;;;;;;4853302;29;20042;-62
2023/07/04 06:27:24;;;;;;;8.68;1.17;;;11.80;99.90;;;;;;4841149;29;20053;-67
2023/07/04 06:29:54;;;;;;;6.93;1.45;;;11.80;99.90;;;;;;4853120;29;20254;-61
2023/07/04 06:32:22;;;;;;;6.72;1.30;;;11.90;99.90;;;;;;4844709;29;20050;-63
2023/07/04 06:34:51;;;;;;;7.95;1.10;;;11.90;99.90;;;;;;4843306;29;20414;-69
2023/07/04 06:37:19;;;;;;;7.67;1.17;;;12.00;99.90;;;;;;4851136;29;20058;-69
2023/07/04 06:39:48;;;;;;;8.50;1.80;;;12.00;99.90;;;;;;4841494;29;20057;-67
2023/07/04 06:42:16;;;;;;;3.33;1.00;;;12.10;99.90;;;;;;4848226;29;20364;-69
2023/07/04 06:44:49;;;;;;;5.10;0.98;;;12.20;99.90;;;;;;4850054;29;20080;-62
2023/07/04 06:47:17;;;;;;;5.75;1.25;;;12.20;99.90;;;;;;4849199;29;20038;-60
2023/07/04 06:49:45;;;;;;;7.70;1.35;;;12.30;99.90;;;;;;4832256;29;20062;-62
2023/07/04 06:52:14;;;;;;;7.45;1.58;;;12.30;99.90;;;;;;4850501;29;20050;-63
2023/07/04 06:54:43;;;;;;;4.22;1.05;;;12.40;99.90;;;;;;4864358;29;20064;-68
2023/07/04 06:57:10;;;;;;;13.70;1.30;;;12.40;99.90;;;;;;4855453;29;20426;-62
2023/07/04 06:59:44;;;;;;;5.03;1.30;;;12.50;99.90;;;;;;4854445;29;20054;-71
2023/07/04 07:02:13;;;;;;;3.85;1.63;;;12.60;99.90;;;;;;4855890;29;20056;-61
2023/07/04 07:04:42;;;;;;;8.67;1.70;;;12.60;99.90;;;;;;4845498;29;20050;-62
2023/07/04 07:07:11;;;;;;;10.05;1.40;;;12.70;99.90;;;;;;4849692;29;20050;-61
2023/07/04 07:09:41;;;;;;;4.82;1.23;;;12.70;99.90;;;;;;4859975;29;20053;-68
2023/07/04 07:12:11;;;;;;;6.47;1.42;;;12.80;99.90;;;;;;4842409;29;20057;-64
2023/07/04 07:14:40;;;;;;;9.00;2.03;;;12.90;99.90;;;;;;4851594;29;20363;-69
2023/07/04 07:17:08;;;;;;;8.02;1.40;;;12.90;99.90;;;;;;4854251;29;20061;-60
2023/07/04 07:19:36;;;;;;;5.40;1.23;;;13.00;99.90;;;;;;4847010;29;20038;-65
2023/07/04 07:22:06;;;;;;;7.78;0.98;;;13.00;99.90;;;;;;4855085;29;20045;-67
2023/07/04 07:24:34;;;;;;;4.72;0.95;;;13.10;99.90;;;;;;4853837;29;20053;-66
2023/07/04 07:27:03;;;;;;;3.88;1.05;;;13.10;99.90;;;;;;4849988;29;20064;-60
2023/07/04 07:29:31;;;;;;;6.50;1.58;;;13.20;99.90;;;;;;4852223;29;20057;-62
2023/07/04 07:32:05;;;;;;;9.60;1.77;;;13.30;99.90;;;;;;4852066;29;20422;-62
2023/07/04 07:34:32;;;;;;;5.30;0.93;;;13.30;99.90;;;;;;4848924;29;20052;-64
2023/07/04 07:37:00;;;;;;;6.55;1.60;;;13.40;99.90;;;;;;4842698;29;20058;-63
2023/07/04 07:39:28;;;;;;;9.02;1.30;;;13.50;99.90;;;;;;4854167;29;20053;-70
2023/07/04 07:41:56;;;;;;;7.45;1.25;;;13.60;99.90;;;;;;4857755;29;20053;-70
2023/07/04 07:44:23;;;;;;;9.55;1.10;;;13.70;99.90;;;;;;4857435;29;20061;-62
2023/07/04 07:46:51;;;;;;;9.50;1.65;;;13.80;99.90;;;;;;4857640;29;20049;-63
2023/07/04 07:49:20;;;;;;;7.90;1.20;;;13.90;99.90;;;;;;4851724;29;20079;-62
2023/07/04 07:51:48;;;;;;;4.28;1.63;;;13.90;99.90;;;;;;4855267;29;20069;-62
2023/07/04 07:54:23;;;;;;;5.35;0.95;;;13.90;99.90;;;;;;4857326;29;20068;-70
2023/07/04 07:56:51;;;;;;;9.45;1.10;;;14.00;99.90;;;;;;4863733;29;20057;-69
2023/07/04 07:59:20;;;;;;;12.70;1.40;;;14.10;99.90;;;;;;4857796;29;20049;-70
2023/07/04 08:01:48;;;;;;;6.15;1.77;;;14.10;99.90;;;;;;4856249;29;20410;-65
2023/07/04 08:04:16;;;;;;;4.50;1.10;;;14.20;99.90;;;;;;4857720;29;20057;-68
2023/07/04 08:06:46;;;;;;;11.30;1.88;;;14.20;99.90;;;;;;4858109;29;20057;-67
2023/07/04 08:09:15;;;;;;;3.38;1.10;;;14.30;99.90;;;;;;4840660;29;20054;-69
2023/07/04 08:11:45;;;;;;;7.43;1.60;;;14.40;99.90;;;;;;4843030;29;20446;-63
2023/07/04 08:14:15;;;;;;;4.00;1.27;;;14.50;99.90;;;;;;4857552;29;20668;-61
2023/07/04 08:16:48;;;;;;;5.53;0.93;;;14.50;99.90;;;;;;4855987;29;20056;-61
2023/07/04 08:19:20;;;;;;;5.93;1.00;;;14.60;99.90;;;;;;4857268;29;20383;-62
2023/07/04 08:21:47;;;;;;;6.22;0.85;;;14.70;99.90;;;;;;4856613;29;20049;-63
2023/07/04 08:24:16;;;;;;;4.88;0.95;;;14.80;99.90;;;;;;4852766;29;20058;-60
2023/07/04 08:26:46;;;;;;;4.28;0.73;;;14.90;99.90;;;;;;4861061;29;20063;-61
2023/07/04 08:29:14;;;;;;;4.57;1.00;;;14.90;99.90;;;;;;4859169;29;20053;-61
2023/07/04 08:31:42;;;;;;;5.82;0.90;;;15.00;99.90;;;;;;4856728;29;20041;-60
2023/07/04 08:34:11;;;;;;;7.18;1.42;;;15.10;99.90;;;;;;4856805;29;20045;-60
2023/07/04 08:36:41;;;;;;;8.63;1.65;;;15.20;99.90;;;;;;4855697;29;20054;-62
2023/07/04 08:39:09;;;;;;;;;;;15.30;99.90;;;;;;4856419;29;20049;-60
2023/07/04 08:41:53;;;;;;;6.35;0.80;;;15.30;99.90;;;;;;4856532;29;20379;-65
2023/07/04 08:44:24;;;;;;;6.72;1.20;;;15.40;99.90;;;;;;4857016;29;20057;-61
2023/07/04 08:46:57;;;;;;;4.70;0.63;;;15.60;99.90;;;;;;4856412;29;20073;-62
2023/07/04 08:49:27;;;;;;;6.88;0.85;;;15.70;99.90;;;;;;4853282;29;20060;-60
2023/07/04 08:52:11;;;;;;;5.40;1.10;;;15.90;99.90;;;;;;4853054;29;20057;-63
2023/07/04 08:54:39;;;;;;;8.98;0.90;;;15.90;99.90;;;;;;4854750;29;20057;-63
2023/07/04 08:57:22;;;;;;;4.10;0.80;;;16.00;99.90;;;;;;4864551;29;20068;-60
2023/07/04 08:59:56;;;;;;;4.32;1.20;;;16.10;99.90;;;;;;4857475;29;20061;-60
2023/07/04 09:02:38;;;;;;;7.15;1.23;;;16.20;99.90;;;;;;4854381;29;20061;-60
2023/07/04 09:05:32;;;;;;;10.40;1.25;;;16.20;99.90;;;;;;4855845;29;20054;-62
2023/07/04 09:08:15;;;;;;;4.50;1.00;;;16.30;99.90;;;;;;4836516;29;20060;-60
2023/07/04 09:10:49;;;;;;;2.92;0.90;;;16.40;99.90;;;;;;4837013;29;20061;-61
2023/07/04 09:13:26;;;;;;;6.60;1.48;;;16.40;99.90;;;;;;4855837;29;20061;-61
2023/07/04 09:15:58;;;;;;;4.55;0.90;;;16.40;99.90;;;;;;4835834;29;20064;-61
2023/07/04 09:18:52;;;;;;;3.83;1.23;;;16.50;99.90;;;;;;4862252;29;20053;-62
2023/07/04 09:21:22;;;;;;;4.13;0.95;;;16.80;99.90;;;;;;4856521;29;20064;-66
2023/07/04 09:23:51;;;;;;;;;;;16.90;99.90;;;;;;4853516;29;20078;-60
2023/07/04 09:26:25;;;;;;;3.08;1.08;;;17.00;99.90;;;;;;4857920;29;19924;-61
2023/07/04 09:28:55;;;;;;;4.03;1.15;;;17.20;99.90;;;;;;4861058;29;20061;-60
2023/07/04 09:31:30;;;;;;;;;;;17.20;99.90;;;;;;4856937;29;20064;-59
2023/07/04 09:34:03;;;;;;;5.85;1.30;;;17.30;99.90;;;;;;4853347;29;20293;-59
2023/07/04 09:36:35;;;;;;;5.38;1.08;;;17.40;99.90;;;;;;4853112;29;20359;-61
2023/07/04 09:39:04;;;;;;;7.57;1.10;;;17.50;99.90;;;;;;4846884;29;20052;-58
2023/07/04 09:41:34;;;;;;;5.35;0.95;;;17.50;99.90;;;;;;4854733;29;20209;-64
2023/07/04 09:44:26;;;;;;;2.30;0.75;;;17.60;99.90;;;;;;4851364;29;20500;-59
2023/07/04 09:46:56;;;;;;;4.20;1.13;;;17.70;99.90;;;;;;4855704;29;20054;-61
2023/07/04 09:49:26;;;;;;;;;;;17.80;99.90;;;;;;4855295;29;20049;-63
2023/07/04 09:51:56;;;;;;;4.87;1.27;;;17.70;99.90;;;;;;4856280;29;19939;-59
2023/07/04 09:54:25;;;;;;;5.63;1.10;;;17.60;99.90;;;;;;4843957;29;20062;-66
2023/07/04 09:56:53;;;;;;;5.68;0.77;;;17.70;99.90;;;;;;4849297;29;20052;-68
2023/07/04 09:59:26;;;;;;;6.35;1.75;;;17.70;99.90;;;;;;4857138;29;20462;-66
2023/07/04 10:02:14;;;;;;;3.58;0.65;;;17.70;99.90;;;;;;4856139;29;20057;-59
2023/07/04 10:04:42;;;;;;;5.80;1.00;;;17.70;99.90;;;;;;4854565;29;20052;-69
2023/07/04 10:07:15;;;;;;;8.20;1.25;;;17.70;99.90;;;;;;4854557;29;20148;-68
2023/07/04 10:10:06;;;;;;;5.20;1.20;;;17.60;99.90;;;;;;4843843;29;20415;-65
2023/07/04 10:12:45;;;;;;;5.70;1.10;;;17.60;99.90;;;;;;4837673;29;20053;-68
2023/07/04 10:15:24;;;;;;;4.13;1.00;;;17.60;99.90;;;;;;4854741;29;20057;-68
2023/07/04 10:17:52;;;;;;;5.22;1.00;;;17.70;99.90;;;;;;4855751;29;20796;-65
2023/07/04 10:20:20;;;;;;;5.38;1.10;;;17.90;99.90;;;;;;4855875;29;20495;-68
2023/07/04 10:22:52;;;;;;;3.88;1.42;;;18.00;99.90;;;;;;4853938;29;20065;-67
2023/07/04 10:25:22;;;;;;;2.60;1.15;;;18.00;99.90;;;;;;4838074;29;20049;-61
2023/07/04 10:27:53;;;;;;;1.27;0.80;;;17.90;99.90;;;;;;4860193;29;20060;-68
2023/07/04 10:30:24;;;;;;;4.15;1.23;;;17.90;99.90;;;;;;4839354;29;20060;-67
2023/07/04 10:33:00;;;;;;;6.32;0.50;;;18.00;99.90;;;;;;4854505;29;20064;-66
2023/07/04 10:35:31;;;;;;;5.25;0.93;;;18.10;99.90;;;;;;4858716;29;20056;-59
2023/07/04 10:38:04;;;;;;;4.90;0.70;;;18.40;99.90;;;;;;4859436;29;20053;-58
2023/07/04 10:40:37;;;;;;;6.32;1.30;;;18.60;99.90;;;;;;4853800;29;20058;-59
2023/07/04 10:43:10;;;;;;;3.30;0.73;;;18.80;99.60;;;;;;4858047;29;20506;-62
2023/07/04 10:45:41;;;;;;;4.78;0.60;;;19.00;99.10;;;;;;4837969;29;20432;-60
2023/07/04 10:48:30;;;;;;;6.15;1.33;;;19.20;98.10;;;;;;4852115;29;20414;-60
2023/07/04 10:51:05;;;;;;;4.30;0.90;;;19.20;98.20;;;;;;4855497;29;20138;-59
2023/07/04 10:53:33;;;;;;;2.53;0.77;;;19.30;98.10;;;;;;4853053;29;20049;-59
2023/07/04 10:56:17;;;;;;;5.75;0.75;;;19.40;97.00;;;;;;4869931;29;20057;-58
2023/07/04 10:58:47;;;;;;;2.17;0.60;;;19.50;97.00;;;;;;4857918;29;20049;-59
2023/07/04 11:01:37;;;;;;;2.00;0.80;;;19.70;96.90;;;;;;4858022;29;20073;-59
2023/07/04 11:04:14;;;;;;;2.17;0.95;;;19.80;95.60;;;;;;4858635;29;20056;-59
2023/07/04 11:06:45;;;;;;;5.97;0.82;;;19.60;96.00;;;;;;4858861;29;20406;-60
2023/07/04 11:09:17;;;;;;;6.53;0.90;;;19.50;96.00;;;;;;4854119;29;20367;-59
2023/07/04 11:11:47;;;;;;;4.18;1.20;;;19.30;96.30;;;;;;4869200;29;20053;-61
2023/07/04 11:14:23;;;;;;;3.63;0.63;;;19.40;96.90;;;;;;4858555;29;20060;-61
2023/07/04 11:16:56;;;;;;;3.28;1.10;;;19.50;97.00;;;;;;4858781;29;20406;-60
2023/07/04 11:19:29;;;;;;;4.25;1.10;;;19.60;96.00;;;;;;4858392;29;20075;-59
2023/07/04 11:22:05;;;;;;;6.07;0.70;;;19.60;96.20;;;;;;4855450;29;20058;-60
2023/07/04 11:24:53;;;;;;;7.45;1.00;;;19.50;96.20;;;;;;4850474;29;20053;-59
2023/07/04 11:27:26;;;;;;;3.50;0.70;;;19.40;96.60;;;;;;4857420;29;20056;-59
2023/07/04 11:29:56;;;;;;;5.18;1.05;;;19.30;95.80;;;;;;4857517;29;20056;-58
2023/07/04 11:32:55;;;;;;;5.50;0.68;;;19.40;95.30;;;;;;4858901;29;20068;-58
2023/07/04 11:35:30;;;;;;;6.63;0.80;;;19.50;94.60;;;;;;4857736;29;20053;-60
2023/07/04 11:38:13;;;;;;;3.92;1.17;;;19.70;94.70;;;;;;4858242;29;20061;-60
2023/07/04 11:40:54;;;;;;;3.70;0.98;;;20.00;94.20;;;;;;4851216;29;20046;-58
2023/07/04 11:43:27;;;;;;;3.00;0.70;;;20.30;94.00;;;;;;4856961;29;20046;-59
2023/07/04 11:45:56;;;;;;;3.65;1.25;;;20.40;94.40;;;;;;4856666;29;20049;-63
2023/07/04 11:48:28;;;;;;;2.53;0.80;;;20.50;94.20;;;;;;4858038;29;20049;-65
2023/07/04 11:51:14;;;;;;;4.00;0.93;;;20.60;94.00;;;;;;4857955;29;20050;-66
2023/07/04 11:54:06;;;;;;;3.05;0.80;;;20.90;94.10;;;;;;4856514;29;20486;-65
2023/07/04 11:56:42;;;;;;;3.65;0.88;;;21.00;93.20;;;;;;4850817;29;20048;-65
2023/07/04 11:59:18;;;;;;;6.40;2.42;;;21.00;92.50;;;;;;4859882;29;20046;-68
2023/07/04 12:01:52;;;;;;;9.10;3.33;;;20.70;92.50;;;;;;4857979;29;20080;-68
2023/07/04 12:04:38;;;;;;;7.57;4.07;;;20.40;92.60;;;;;;4857274;29;20634;-61
2023/07/04 12:07:17;;;;;;;10.65;2.88;;;20.00;93.50;;;;;;4857573;29;20045;-66
2023/07/04 12:10:00;;;;;;;9.00;2.10;;;19.80;93.90;;;;;;4852019;29;20054;-64
2023/07/04 12:12:31;;;;;;;6.32;1.80;;;19.70;94.00;;;;;;4856496;29;20054;-65
2023/07/04 12:15:08;;;;;;;5.15;1.20;;;19.80;95.20;;;;;;4857457;29;20057;-60
2023/07/04 12:17:44;;;;;;;8.13;1.80;;;20.30;95.10;;;;;;4856327;29;20426;-60
2023/07/04 12:20:16;;;;;;;3.30;0.80;;;20.90;95.20;;;;;;4857667;29;20054;-61
2023/07/04 12:23:00;;;;;;;2.60;0.65;;;21.50;92.30;;;;;;4857280;29;20058;-59
2023/07/04 12:25:44;;;;;;;4.03;0.70;;;22.10;91.50;;;;;;4843354;29;20402;-59
2023/07/04 12:28:14;;;;;;;6.13;0.90;;;22.40;90.60;;;;;;4862793;29;20056;-59
2023/07/04 12:30:49;;;;;;;2.80;0.93;;;22.70;91.10;;;;;;4856620;29;20065;-68
2023/07/04 12:33:31;;;;;;;3.53;0.85;;;23.10;87.70;;;;;;4857571;29;20058;-62
2023/07/04 12:36:06;;;;;;;2.03;0.65;;;23.30;88.10;;;;;;4857332;29;20049;-70
2023/07/04 12:38:48;;;;;;;5.72;0.90;;;23.70;87.80;;;;;;4851302;29;20049;-59
2023/07/04 12:41:18;;;;;;;4.25;0.80;;;24.20;86.90;;;;;;4850788;29;20053;-60
2023/07/04 12:43:51;;;;;;;4.30;0.70;;;24.50;83.20;;;;;;4844057;29;20045;-59
2023/07/04 12:46:23;;;;;;;5.35;0.75;;;24.70;82.50;;;;;;4845420;29;20046;-59
2023/07/04 12:48:55;;;;;;;2.22;0.80;;;24.50;80.80;;;;;;4843937;29;20054;-59
2023/07/04 12:51:28;;;;;;;3.17;0.90;;;24.60;82.30;;;;;;4839168;29;20050;-60
2023/07/04 12:54:02;;;;;;;4.32;0.68;;;24.80;82.70;;;;;;4841667;29;20403;-62
2023/07/04 12:56:30;;;;;;;4.75;0.85;;;25.10;80.20;;;;;;4848942;29;20041;-59
2023/07/04 12:58:58;;;;;;;1.10;0.40;;;25.30;78.10;;;;;;4850909;29;20050;-66
2023/07/04 13:01:31;;;;;;;6.38;0.88;;;25.40;77.00;;;;;;4852806;29;20049;-59
2023/07/04 13:04:06;;;;;;;4.63;1.10;;;25.50;76.10;;;;;;4852985;29;20049;-60
2023/07/04 13:06:34;;;;;;;5.47;1.42;;;25.50;76.20;;;;;;4854416;29;20057;-59
2023/07/04 13:09:05;;;;;;;9.25;1.63;;;25.20;77.20;;;;;;4855202;29;20049;-59
2023/07/04 13:11:34;;;;;;;7.93;1.40;;;25.10;79.90;;;;;;4846912;29;20045;-62
2023/07/04 13:14:10;;;;;;;4.53;0.90;;;25.00;80.60;;;;;;4836884;29;20068;-66